Time;durP1;ratioP1;P1;durP2;ratioP2;P2;SDS_P1;SDS_P2;PMS_P1;PMS_P2;Temp;Humidity;BMP_temperature;BMP_pressure;BME280_temperature;BME280_humidity;BME280_pressure;Samples;Min_cycle;Max_cycle;Signal;HPM_P1;HPM_P2
2021/03/05 00:00:54;;;;;;;2.93;1.63;;;;;;;;;;4995887;28;20057;-73
2021/03/05 00:03:20;;;;;;;4.03;1.70;;;;;;;;;;5013482;28;20061;-72
2021/03/05 00:05:45;;;;;;;3.72;1.90;;;;;;;;;;5013745;28;20034;-73
2021/03/05 00:08:11;;;;;;;3.13;1.70;;;;;;;;;;4995839;28;20037;-73
2021/03/05 00:10:38;;;;;;;3.15;1.70;;;;;;;;;;4995900;28;20041;-73
2021/03/05 00:13:04;;;;;;;3.08;1.60;;;;;;;;;;5012208;28;20157;-73
2021/03/05 00:15:32;;;;;;;3.70;1.87;;;;;;;;;;4995835;28;20050;-73
2021/03/05 00:17:57;;;;;;;3.85;1.67;;;;;;;;;;5012017;28;20085;-73
2021/03/05 00:20:25;;;;;;;2.80;1.70;;;;;;;;;;5012022;28;20033;-73
2021/03/05 00:22:51;;;;;;;3.58;1.67;;;;;;;;;;5012268;28;20030;-73
2021/03/05 00:25:16;;;;;;;3.57;1.80;;;;;;;;;;5013236;28;20069;-73
2021/03/05 00:27:42;;;;;;;2.80;1.60;;;;;;;;;;5011998;28;20030;-73
2021/03/05 00:30:08;;;;;;;2.53;1.60;;;;;;;;;;5011957;28;20504;-73
2021/03/05 00:32:36;;;;;;;3.03;1.52;;;;;;;;;;5012530;28;20038;-73
2021/03/05 00:35:03;;;;;;;3.05;1.77;;;;;;;;;;5016164;28;20026;-73
2021/03/05 00:37:28;;;;;;;;;;;;;;;;;;5016250;28;20491;-73
2021/03/05 00:39:53;;;;;;;2.90;1.60;;;;;;;;;;5015923;28;19957;-73
2021/03/05 00:42:19;;;;;;;3.27;1.63;;;;;;;;;;5017235;28;20524;-73
2021/03/05 00:44:44;;;;;;;2.97;1.63;;;;;;;;;;5017046;28;20137;-73
2021/03/05 00:47:09;;;;;;;2.90;1.50;;;;;;;;;;5017010;28;20061;-73
2021/03/05 00:49:35;;;;;;;2.97;1.40;;;;;;;;;;5015632;28;20152;-73
2021/03/05 00:52:00;;;;;;;2.83;1.50;;;;;;;;;;5015644;28;20049;-73
2021/03/05 00:54:25;;;;;;;2.93;1.60;;;;;;;;;;5016957;28;20161;-73
2021/03/05 00:56:51;;;;;;;3.97;1.60;;;;;;;;;;5016941;28;20470;-73
2021/03/05 00:59:16;;;;;;;3.80;1.67;;;;;;;;;;5016564;28;20038;-73
2021/03/05 01:01:41;;;;;;;4.70;1.47;;;;;;;;;;5015565;28;20060;-73
2021/03/05 01:04:07;;;;;;;3.53;1.57;;;;;;;;;;4999063;28;20572;-73
2021/03/05 01:06:32;;;;;;;3.47;1.67;;;;;;;;;;5015422;28;20049;-73
2021/03/05 01:08:57;;;;;;;2.97;1.63;;;;;;;;;;5015806;28;20496;-73
2021/03/05 01:11:23;;;;;;;3.67;1.70;;;;;;;;;;5015306;28;20458;-73
2021/03/05 01:13:49;;;;;;;4.13;1.90;;;;;;;;;;5015283;28;20113;-73
2021/03/05 01:16:14;;;;;;;4.72;1.70;;;;;;;;;;5015279;28;20029;-73
2021/03/05 01:18:40;;;;;;;4.83;1.67;;;;;;;;;;5015135;28;20037;-73
2021/03/05 01:21:05;;;;;;;3.23;1.57;;;;;;;;;;5016341;28;20124;-73
2021/03/05 01:23:31;;;;;;;3.63;1.80;;;;;;;;;;4998789;28;20036;-73
2021/03/05 01:25:57;;;;;;;3.58;1.58;;;;;;;;;;4998784;28;20034;-73
2021/03/05 01:28:22;;;;;;;2.67;1.60;;;;;;;;;;5015031;28;20030;-73
2021/03/05 01:30:47;;;;;;;3.20;1.90;;;;;;;;;;5016173;28;20516;-73
2021/03/05 01:33:13;;;;;;;3.17;1.73;;;;;;;;;;5014957;28;20378;-73
2021/03/05 01:35:38;;;;;;;3.53;1.43;;;;;;;;;;5014930;28;20119;-73
2021/03/05 01:38:03;;;;;;;3.53;1.60;;;;;;;;;;5014953;28;20030;-73
2021/03/05 01:40:33;;;;;;;2.90;1.63;;;;;;;;;;5014687;28;20029;-73
2021/03/05 01:42:58;;;;;;;3.10;1.63;;;;;;;;;;5014824;28;20100;-73
2021/03/05 01:45:25;;;;;;;3.30;1.80;;;;;;;;;;5015728;28;20397;-72
2021/03/05 01:47:53;;;;;;;2.72;1.58;;;;;;;;;;4998508;28;20370;-73
2021/03/05 01:50:26;;;;;;;3.63;1.77;;;;;;;;;;5014718;28;20057;-73
2021/03/05 01:53:00;;;;;;;4.38;1.63;;;;;;;;;;5015776;28;20117;-73
2021/03/05 01:55:25;;;;;;;4.85;1.58;;;;;;;;;;5014750;28;20077;-73
2021/03/05 01:57:50;;;;;;;3.13;1.40;;;;;;;;;;5014501;28;20109;-73
2021/03/05 02:00:18;;;;;;;3.00;1.60;;;;;;;;;;5014368;28;20120;-73
2021/03/05 02:02:43;;;;;;;3.15;1.50;;;;;;;;;;5014351;28;20073;-73
2021/03/05 02:05:09;;;;;;;2.67;1.57;;;;;;;;;;5015501;28;20065;-73
2021/03/05 02:07:35;;;;;;;4.45;1.60;;;;;;;;;;5014420;28;20515;-73
2021/03/05 02:10:00;;;;;;;3.80;1.43;;;;;;;;;;5015190;28;20129;-73
2021/03/05 02:12:25;;;;;;;3.37;1.63;;;;;;;;;;4997740;28;20061;-73
2021/03/05 02:14:51;;;;;;;2.73;1.40;;;;;;;;;;5015367;28;20082;-73
2021/03/05 02:17:26;;;;;;;2.43;1.47;;;;;;;;;;5015202;28;20123;-73
2021/03/05 02:19:56;;;;;;;3.50;1.70;;;;;;;;;;5015445;28;20452;-73
2021/03/05 02:22:32;;;;;;;3.50;1.73;;;;;;;;;;5014010;28;20080;-73
2021/03/05 02:25:19;;;;;;;4.40;1.58;;;;;;;;;;5013976;28;20030;-72
2021/03/05 02:28:10;;;;;;;2.75;1.33;;;;;;;;;;5014346;28;20030;-73
2021/03/05 02:30:54;;;;;;;2.53;1.50;;;;;;;;;;5014173;28;20038;-73
2021/03/05 02:33:23;;;;;;;3.17;1.60;;;;;;;;;;5014872;28;20034;-73
2021/03/05 02:35:48;;;;;;;3.30;1.50;;;;;;;;;;5013815;28;20045;-73
2021/03/05 02:38:15;;;;;;;3.33;1.40;;;;;;;;;;4997624;28;20529;-73
2021/03/05 02:40:41;;;;;;;3.90;1.38;;;;;;;;;;4997398;28;20449;-73
2021/03/05 02:43:09;;;;;;;2.93;1.40;;;;;;;;;;4997302;28;20030;-73
2021/03/05 02:45:35;;;;;;;2.45;1.30;;;;;;;;;;4997378;28;20038;-73
2021/03/05 02:48:03;;;;;;;2.85;1.45;;;;;;;;;;4997237;28;20022;-73
2021/03/05 02:50:29;;;;;;;3.45;1.50;;;;;;;;;;4997190;28;20033;-73
2021/03/05 02:52:55;;;;;;;2.15;1.25;;;;;;;;;;4997159;28;20030;-73
2021/03/05 02:55:21;;;;;;;2.67;1.60;;;;;;;;;;4996329;28;20505;-73
2021/03/05 02:57:47;;;;;;;3.13;1.40;;;;;;;;;;4997000;28;20045;-73
2021/03/05 03:00:13;;;;;;;3.03;1.40;;;;;;;;;;4996853;28;20108;-72
2021/03/05 03:02:38;;;;;;;;;;;;;;;;;;5013624;28;20050;-72
2021/03/05 03:05:04;;;;;;;3.03;1.57;;;;;;;;;;5013301;28;19932;-73
2021/03/05 03:07:29;;;;;;;3.13;1.50;;;;;;;;;;4980561;28;20636;-73
2021/03/05 03:09:55;;;;;;;2.67;1.30;;;;;;;;;;4996600;28;20069;-73
2021/03/05 03:12:20;;;;;;;2.70;1.50;;;;;;;;;;4996326;28;20073;-72
2021/03/05 03:14:46;;;;;;;2.63;1.40;;;;;;;;;;5013109;28;20084;-72
2021/03/05 03:17:11;;;;;;;2.67;1.50;;;;;;;;;;4996727;28;20045;-73
2021/03/05 03:19:37;;;;;;;2.77;1.60;;;;;;;;;;4996453;28;20038;-72
2021/03/05 03:22:03;;;;;;;2.40;1.13;;;;;;;;;;5012981;28;20268;-73
2021/03/05 03:24:29;;;;;;;2.87;1.40;;;;;;;;;;4996537;28;20525;-73
2021/03/05 03:26:55;;;;;;;3.40;1.55;;;;;;;;;;4996836;28;20420;-73
2021/03/05 03:29:20;;;;;;;2.67;1.37;;;;;;;;;;5013922;28;20058;-73
2021/03/05 03:31:45;;;;;;;2.63;1.50;;;;;;;;;;5013937;28;20497;-72
2021/03/05 03:34:11;;;;;;;2.50;1.40;;;;;;;;;;5013997;28;20445;-72
2021/03/05 03:36:37;;;;;;;3.38;1.60;;;;;;;;;;4996475;28;20374;-73
2021/03/05 03:39:07;;;;;;;3.23;1.50;;;;;;;;;;4996383;28;20061;-72
2021/03/05 03:41:33;;;;;;;3.50;1.60;;;;;;;;;;5012602;28;20030;-72
2021/03/05 03:43:59;;;;;;;2.58;1.33;;;;;;;;;;4996569;28;20102;-72
2021/03/05 03:46:24;;;;;;;2.33;1.47;;;;;;;;;;5013931;28;20058;-72
2021/03/05 03:48:55;;;;;;;2.37;1.40;;;;;;;;;;5012649;28;20113;-72
2021/03/05 03:51:20;;;;;;;2.47;1.33;;;;;;;;;;4996628;28;20491;-72
2021/03/05 03:53:46;;;;;;;2.50;1.47;;;;;;;;;;4996103;28;20041;-72
2021/03/05 03:56:11;;;;;;;2.33;1.30;;;;;;;;;;4996018;28;20304;-72
2021/03/05 03:58:37;;;;;;;3.07;1.50;;;;;;;;;;4996406;28;20030;-72
2021/03/05 04:01:06;;;;;;;2.90;1.47;;;;;;;;;;4995988;28;20499;-72
2021/03/05 04:03:31;;;;;;;2.15;1.40;;;;;;;;;;5012306;28;20034;-72
2021/03/05 04:05:57;;;;;;;2.93;1.50;;;;;;;;;;5012384;28;20168;-72
2021/03/05 04:08:22;;;;;;;2.30;1.30;;;;;;;;;;4978708;28;20112;-72
2021/03/05 04:13:15;;;;;;;2.63;1.40;;;;;;;;;;5031205;28;20042;-74
2021/03/05 04:15:41;;;;;;;2.93;1.40;;;;;;;;;;5048551;28;20029;-74
2021/03/05 04:18:06;;;;;;;3.17;1.67;;;;;;;;;;5031793;28;20034;-74
2021/03/05 04:20:35;;;;;;;2.37;1.27;;;;;;;;;;5035154;28;20061;-75
2021/03/05 04:23:00;;;;;;;2.97;1.30;;;;;;;;;;5002529;28;20029;-76
2021/03/05 04:25:26;;;;;;;3.17;1.60;;;;;;;;;;5035152;28;20079;-74
2021/03/05 04:27:51;;;;;;;3.20;1.40;;;;;;;;;;5035073;28;20490;-75
2021/03/05 04:30:17;;;;;;;1.93;1.23;;;;;;;;;;5052800;28;20148;-74
2021/03/05 04:32:42;;;;;;;2.70;1.37;;;;;;;;;;5052843;28;20138;-74
2021/03/05 04:35:09;;;;;;;2.60;1.40;;;;;;;;;;5019650;28;20036;-75
2021/03/05 04:37:34;;;;;;;2.78;1.42;;;;;;;;;;5022059;28;20029;-74
2021/03/05 04:40:00;;;;;;;2.53;1.40;;;;;;;;;;5034905;28;20052;-74
2021/03/05 04:42:25;;;;;;;2.50;1.30;;;;;;;;;;5052745;28;20035;-75
2021/03/05 04:44:50;;;;;;;2.80;1.67;;;;;;;;;;5036160;28;20487;-74
2021/03/05 04:47:16;;;;;;;3.07;1.50;;;;;;;;;;5069722;28;20071;-74
2021/03/05 04:49:41;;;;;;;2.37;1.20;;;;;;;;;;5071691;28;20105;-74
2021/03/05 04:52:06;;;;;;;2.33;1.30;;;;;;;;;;5034927;28;20124;-74
2021/03/05 04:54:32;;;;;;;2.17;1.33;;;;;;;;;;5034924;28;20075;-74
2021/03/05 04:56:57;;;;;;;2.90;1.30;;;;;;;;;;5066687;28;20040;-74
2021/03/05 04:59:23;;;;;;;2.10;1.40;;;;;;;;;;5021369;28;20174;-74
2021/03/05 05:01:48;;;;;;;2.27;1.37;;;;;;;;;;5072618;28;20070;-75
2021/03/05 05:04:13;;;;;;;3.00;1.57;;;;;;;;;;5051050;28;20068;-76
2021/03/05 05:06:39;;;;;;;2.07;1.13;;;;;;;;;;5033806;28;20064;-75
2021/03/05 05:09:04;;;;;;;2.67;1.20;;;;;;;;;;5039788;28;20061;-74
2021/03/05 05:11:29;;;;;;;3.10;1.13;;;;;;;;;;5017931;28;20029;-75
2021/03/05 05:13:55;;;;;;;2.90;1.30;;;;;;;;;;5052376;28;20060;-75
2021/03/05 05:16:20;;;;;;;2.20;1.30;;;;;;;;;;5030097;28;20048;-75
2021/03/05 05:18:45;;;;;;;2.00;1.10;;;;;;;;;;5002448;28;20033;-74
2021/03/05 05:21:11;;;;;;;2.60;1.30;;;;;;;;;;5035537;28;20032;-74
2021/03/05 05:23:36;;;;;;;2.40;1.33;;;;;;;;;;5055172;28;20115;-74
2021/03/05 05:26:01;;;;;;;2.13;1.37;;;;;;;;;;5021599;28;20079;-75
2021/03/05 05:28:27;;;;;;;2.40;1.20;;;;;;;;;;5038155;28;20136;-74
2021/03/05 05:30:52;;;;;;;3.23;1.40;;;;;;;;;;5038512;28;20071;-75
2021/03/05 05:33:18;;;;;;;2.23;1.33;;;;;;;;;;5038035;28;20033;-75
2021/03/05 05:35:44;;;;;;;2.33;1.30;;;;;;;;;;5055878;28;20045;-75
2021/03/05 05:38:09;;;;;;;2.30;1.20;;;;;;;;;;5037936;28;20590;-75
2021/03/05 05:40:35;;;;;;;2.50;1.30;;;;;;;;;;5021365;28;20037;-75
2021/03/05 05:43:00;;;;;;;2.40;1.40;;;;;;;;;;5038012;28;20036;-75
2021/03/05 05:45:25;;;;;;;1.93;1.17;;;;;;;;;;5037857;28;20040;-75
2021/03/05 05:47:50;;;;;;;2.27;1.30;;;;;;;;;;5037830;28;20021;-75
2021/03/05 05:50:16;;;;;;;2.10;1.30;;;;;;;;;;5021179;28;20060;-76
2021/03/05 05:52:41;;;;;;;2.60;1.23;;;;;;;;;;5037367;28;20091;-74
2021/03/05 05:55:09;;;;;;;2.23;0.93;;;;;;;;;;5053488;28;20082;-75
2021/03/05 05:57:36;;;;;;;2.50;1.30;;;;;;;;;;5055558;28;20039;-75
2021/03/05 06:00:02;;;;;;;2.50;1.17;;;;;;;;;;5021107;28;20495;-75
2021/03/05 06:02:28;;;;;;;3.08;1.33;;;;;;;;;;5021048;28;20029;-75
2021/03/05 06:04:56;;;;;;;2.20;1.10;;;;;;;;;;5021568;28;20068;-75
2021/03/05 06:07:22;;;;;;;2.13;1.20;;;;;;;;;;5020836;28;20510;-75
2021/03/05 06:09:49;;;;;;;2.27;1.10;;;;;;;;;;5037397;28;20060;-76
2021/03/05 06:12:14;;;;;;;2.13;1.10;;;;;;;;;;5001103;28;20041;-75
2021/03/05 06:14:40;;;;;;;1.80;1.00;;;;;;;;;;5015014;28;20162;-75
2021/03/05 06:17:05;;;;;;;2.20;1.13;;;;;;;;;;5037419;28;20037;-75
2021/03/05 06:19:31;;;;;;;2.03;1.10;;;;;;;;;;5055149;28;20024;-75
2021/03/05 06:21:56;;;;;;;2.60;1.30;;;;;;;;;;5055017;28;20112;-75
2021/03/05 06:24:22;;;;;;;2.43;1.30;;;;;;;;;;5054919;28;20120;-75
2021/03/05 06:26:47;;;;;;;2.22;1.13;;;;;;;;;;5021183;28;20060;-76
2021/03/05 06:29:13;;;;;;;2.47;1.40;;;;;;;;;;5054883;28;20065;-75
2021/03/05 06:31:38;;;;;;;2.47;1.20;;;;;;;;;;5036053;28;20116;-75
2021/03/05 06:34:04;;;;;;;2.00;1.07;;;;;;;;;;5020695;28;20415;-75
2021/03/05 06:36:29;;;;;;;3.23;1.40;;;;;;;;;;5020860;28;20032;-76
2021/03/05 06:38:55;;;;;;;2.57;1.27;;;;;;;;;;5036852;28;20025;-75
2021/03/05 06:41:24;;;;;;;1.67;0.90;;;;;;;;;;5054638;28;20399;-75
2021/03/05 06:43:51;;;;;;;5.28;1.30;;;;;;;;;;5020366;28;20025;-75
2021/03/05 06:46:28;;;;;;;2.30;1.13;;;;;;;;;;5054488;28;20207;-75
2021/03/05 06:48:53;;;;;;;2.03;1.30;;;;;;;;;;5037001;28;20373;-76
2021/03/05 06:51:19;;;;;;;2.23;1.13;;;;;;;;;;5036601;28;20272;-75
2021/03/05 06:53:44;;;;;;;3.60;1.20;;;;;;;;;;5054434;28;20442;-75
2021/03/05 06:56:26;;;;;;;1.87;1.10;;;;;;;;;;5020308;28;20058;-75
2021/03/05 06:59:03;;;;;;;1.77;0.95;;;;;;;;;;5020258;28;20048;-75
2021/03/05 07:01:29;;;;;;;2.30;1.23;;;;;;;;;;5054353;28;20033;-75
2021/03/05 07:04:08;;;;;;;3.77;1.10;;;;;;;;;;5036477;28;20565;-75
2021/03/05 07:06:34;;;;;;;1.77;1.15;;;;;;;;;;5036530;28;20036;-75
2021/03/05 07:08:59;;;;;;;1.40;0.90;;;;;;;;;;5019928;28;20078;-75
2021/03/05 07:11:32;;;;;;;3.30;1.20;;;;;;;;;;5019597;28;20040;-75
2021/03/05 07:13:58;;;;;;;2.28;1.20;;;;;;;;;;5020078;28;20032;-76
2021/03/05 07:16:23;;;;;;;2.10;1.10;;;;;;;;;;5036154;28;20078;-75
2021/03/05 07:18:49;;;;;;;4.10;1.10;;;;;;;;;;5019547;28;20116;-75
2021/03/05 07:21:18;;;;;;;2.27;1.20;;;;;;;;;;5019544;28;20373;-74
2021/03/05 07:23:44;;;;;;;2.22;1.17;;;;;;;;;;5035944;28;20044;-75
2021/03/05 07:26:09;;;;;;;1.97;1.07;;;;;;;;;;5019720;28;20074;-75
2021/03/05 07:28:35;;;;;;;2.60;1.30;;;;;;;;;;5019334;28;20063;-75
2021/03/05 07:31:01;;;;;;;1.83;1.17;;;;;;;;;;5002759;28;20029;-75
2021/03/05 07:33:26;;;;;;;2.25;1.08;;;;;;;;;;5019714;28;20048;-75
2021/03/05 07:35:52;;;;;;;2.23;1.07;;;;;;;;;;5019492;28;20029;-75
2021/03/05 07:38:18;;;;;;;2.33;1.03;;;;;;;;;;5019230;28;20052;-75
2021/03/05 07:40:43;;;;;;;2.00;1.13;;;;;;;;;;5019397;28;20037;-75
2021/03/05 07:43:08;;;;;;;2.97;1.27;;;;;;;;;;5035528;28;20110;-75
2021/03/05 07:45:34;;;;;;;2.10;0.97;;;;;;;;;;5019254;28;20067;-75
2021/03/05 07:48:00;;;;;;;1.67;0.90;;;;;;;;;;5019235;28;20067;-75
2021/03/05 07:50:25;;;;;;;2.67;1.00;;;;;;;;;;5035694;28;20033;-75
2021/03/05 07:52:51;;;;;;;2.23;1.00;;;;;;;;;;5019145;28;20064;-75
2021/03/05 07:55:33;;;;;;;1.90;1.00;;;;;;;;;;5035484;28;20064;-75
2021/03/05 07:57:59;;;;;;;2.58;1.00;;;;;;;;;;5020753;28;20029;-75
2021/03/05 08:00:46;;;;;;;2.20;1.13;;;;;;;;;;5018912;28;20122;-75
2021/03/05 08:03:12;;;;;;;;;;;;;;;;;;5036342;28;20033;-75
2021/03/05 08:05:47;;;;;;;1.98;1.00;;;;;;;;;;5035396;28;20015;-75
2021/03/05 08:08:16;;;;;;;1.85;1.02;;;;;;;;;;5018957;28;20108;-75
2021/03/05 08:10:58;;;;;;;2.10;1.00;;;;;;;;;;5035751;28;20032;-76
2021/03/05 08:16:31;;;;;;;2.60;1.10;;;;;;;;;;5052893;28;20087;-74
2021/03/05 08:19:05;;;;;;;1.80;0.90;;;;;;;;;;5034813;28;20038;-75
2021/03/05 08:21:54;;;;;;;1.75;0.80;;;;;;;;;;5052717;28;20045;-75
2021/03/05 08:24:26;;;;;;;2.08;1.10;;;;;;;;;;5052760;28;20025;-75
2021/03/05 08:27:20;;;;;;;1.55;0.90;;;;;;;;;;5034999;28;20031;-75
2021/03/05 08:30:04;;;;;;;3.08;1.10;;;;;;;;;;5044612;28;20400;-75
2021/03/05 08:32:32;;;;;;;1.75;1.08;;;;;;;;;;5052708;28;20040;-75
2021/03/05 08:35:07;;;;;;;1.83;1.02;;;;;;;;;;5034779;28;20124;-75
2021/03/05 08:37:34;;;;;;;2.80;1.10;;;;;;;;;;5019387;28;20044;-75
2021/03/05 08:40:11;;;;;;;2.08;1.08;;;;;;;;;;5052635;28;20044;-75
2021/03/05 08:42:40;;;;;;;;;;;;;;;;;;5053171;28;20037;-75
2021/03/05 08:45:08;;;;;;;2.63;1.08;;;;;;;;;;5035175;28;19969;-75
2021/03/05 08:47:37;;;;;;;3.53;1.20;;;;;;;;;;5052515;28;20033;-75
2021/03/05 08:50:03;;;;;;;2.20;1.10;;;;;;;;;;5014311;28;20045;-75
2021/03/05 08:52:28;;;;;;;2.20;1.10;;;;;;;;;;5032581;28;20036;-75
2021/03/05 08:54:54;;;;;;;2.30;1.17;;;;;;;;;;5020862;28;20514;-75
2021/03/05 08:57:19;;;;;;;2.50;1.20;;;;;;;;;;5021992;28;20499;-75
2021/03/05 08:59:48;;;;;;;2.30;1.00;;;;;;;;;;5056253;28;20122;-75
2021/03/05 09:02:13;;;;;;;2.05;1.00;;;;;;;;;;5038945;28;20112;-75
2021/03/05 09:04:41;;;;;;;2.43;1.00;;;;;;;;;;5022073;28;20132;-75
2021/03/05 09:07:07;;;;;;;2.47;0.90;;;;;;;;;;5021914;28;20468;-76
2021/03/05 09:09:32;;;;;;;3.13;1.07;;;;;;;;;;5021728;28;20112;-75
2021/03/05 09:12:14;;;;;;;2.87;1.30;;;;;;;;;;5038169;28;20504;-75
2021/03/05 09:14:40;;;;;;;2.92;1.08;;;;;;;;;;5006275;28;20267;-75
2021/03/05 09:17:06;;;;;;;2.65;1.10;;;;;;;;;;5021912;28;20108;-74
2021/03/05 09:19:32;;;;;;;2.40;1.10;;;;;;;;;;5021574;28;20528;-75
2021/03/05 09:22:04;;;;;;;3.42;1.25;;;;;;;;;;5021558;28;20037;-75
2021/03/05 09:24:46;;;;;;;2.45;1.10;;;;;;;;;;5037976;28;20123;-75
2021/03/05 09:27:18;;;;;;;2.20;1.20;;;;;;;;;;5038685;28;20411;-75
2021/03/05 09:29:44;;;;;;;1.80;0.95;;;;;;;;;;5022149;28;20391;-75
2021/03/05 09:32:09;;;;;;;2.57;1.07;;;;;;;;;;5037988;28;20039;-76
2021/03/05 09:34:34;;;;;;;3.47;1.10;;;;;;;;;;5055699;28;20599;-76
2021/03/05 09:37:00;;;;;;;2.77;1.27;;;;;;;;;;5004786;28;20530;-76
2021/03/05 09:39:25;;;;;;;1.87;0.93;;;;;;;;;;5055716;28;20033;-75
2021/03/05 09:41:50;;;;;;;1.77;0.97;;;;;;;;;;5021270;28;20120;-75
2021/03/05 09:44:15;;;;;;;4.10;1.00;;;;;;;;;;5037866;28;20055;-75
2021/03/05 09:46:41;;;;;;;3.13;1.20;;;;;;;;;;5055545;28;20561;-75
2021/03/05 09:49:23;;;;;;;1.67;0.97;;;;;;;;;;5020661;28;20582;-75
2021/03/05 09:51:48;;;;;;;2.63;0.90;;;;;;;;;;5030708;28;20037;-75
2021/03/05 09:54:14;;;;;;;2.10;1.10;;;;;;;;;;5037633;28;20455;-75
2021/03/05 09:56:44;;;;;;;2.53;1.20;;;;;;;;;;5055412;28;20116;-74
2021/03/05 09:59:09;;;;;;;1.95;1.05;;;;;;;;;;5021905;28;20104;-75
2021/03/05 10:01:38;;;;;;;2.30;1.00;;;;;;;;;;5055438;28;20136;-75
2021/03/05 10:04:03;;;;;;;2.58;1.20;;;;;;;;;;5019916;28;20123;-74
2021/03/05 10:06:30;;;;;;;1.83;1.00;;;;;;;;;;5024355;28;20029;-75
2021/03/05 10:08:59;;;;;;;1.58;0.88;;;;;;;;;;5001306;28;20056;-75
2021/03/05 10:13:54;;;;;;;3.22;1.10;;;;;;;;;;5071307;28;20498;-73
2021/03/05 10:16:27;;;;;;;2.33;1.00;;;;;;;;;;5055384;28;20037;-73
2021/03/05 10:18:55;;;;;;;3.13;1.10;;;;;;;;;;5037461;28;20033;-73
2021/03/05 10:21:20;;;;;;;2.72;1.15;;;;;;;;;;5050879;28;20033;-73
2021/03/05 10:23:46;;;;;;;1.97;1.00;;;;;;;;;;5053849;28;20086;-73
2021/03/05 10:26:26;;;;;;;2.60;1.03;;;;;;;;;;5045695;28;20060;-73
2021/03/05 10:29:04;;;;;;;2.75;1.20;;;;;;;;;;5074888;28;20071;-73
2021/03/05 10:31:46;;;;;;;3.28;1.05;;;;;;;;;;5073560;28;20029;-73
2021/03/05 10:34:30;;;;;;;1.85;1.00;;;;;;;;;;5073631;28;20051;-73
2021/03/05 10:37:00;;;;;;;2.38;1.20;;;;;;;;;;5073762;28;20025;-73
2021/03/05 10:39:27;;;;;;;2.03;1.02;;;;;;;;;;5073337;28;20071;-73
2021/03/05 10:41:59;;;;;;;3.45;1.30;;;;;;;;;;5073444;28;20024;-73
2021/03/05 10:44:26;;;;;;;2.97;1.00;;;;;;;;;;5073392;28;20036;-73
2021/03/05 10:46:51;;;;;;;2.95;1.10;;;;;;;;;;5056579;28;20039;-73
2021/03/05 10:49:16;;;;;;;3.93;1.10;;;;;;;;;;5073427;28;20123;-73
2021/03/05 10:51:42;;;;;;;2.10;0.97;;;;;;;;;;5073168;28;20039;-73
2021/03/05 10:54:07;;;;;;;3.13;1.00;;;;;;;;;;5073199;28;20032;-73
2021/03/05 10:56:33;;;;;;;2.87;1.10;;;;;;;;;;5074607;28;20372;-73
2021/03/05 10:58:59;;;;;;;2.60;0.95;;;;;;;;;;5056531;28;20044;-73
2021/03/05 11:01:25;;;;;;;2.37;1.00;;;;;;;;;;5073248;28;20032;-73
2021/03/05 11:03:50;;;;;;;1.90;0.97;;;;;;;;;;5074267;28;20052;-73
2021/03/05 11:06:16;;;;;;;2.57;1.10;;;;;;;;;;5072990;28;20523;-73
2021/03/05 11:08:41;;;;;;;2.45;1.10;;;;;;;;;;5072795;28;20025;-73
2021/03/05 11:11:07;;;;;;;2.33;1.07;;;;;;;;;;5074034;28;20115;-73
2021/03/05 11:13:32;;;;;;;2.60;1.07;;;;;;;;;;5074066;28;20056;-73
2021/03/05 11:15:57;;;;;;;2.70;1.17;;;;;;;;;;5073934;28;20498;-73
2021/03/05 11:18:23;;;;;;;1.93;1.00;;;;;;;;;;5073457;28;20457;-73
2021/03/05 11:20:48;;;;;;;2.03;1.00;;;;;;;;;;5072832;28;20440;-73
2021/03/05 11:23:13;;;;;;;2.23;1.10;;;;;;;;;;5072770;28;20510;-73
2021/03/05 11:25:39;;;;;;;2.80;1.10;;;;;;;;;;5073842;28;20064;-73
2021/03/05 11:28:04;;;;;;;2.30;0.97;;;;;;;;;;5072620;28;20060;-73
2021/03/05 11:30:30;;;;;;;2.17;1.10;;;;;;;;;;5055819;28;20029;-73
2021/03/05 11:32:55;;;;;;;2.67;1.00;;;;;;;;;;5089285;28;20086;-73
2021/03/05 11:35:21;;;;;;;2.30;1.07;;;;;;;;;;5072555;28;20071;-73
2021/03/05 11:37:46;;;;;;;2.53;1.00;;;;;;;;;;5072330;28;20063;-73
2021/03/05 11:40:12;;;;;;;2.47;1.10;;;;;;;;;;5073498;28;20087;-73
2021/03/05 11:42:37;;;;;;;2.25;0.95;;;;;;;;;;5072115;28;20127;-73
2021/03/05 11:45:05;;;;;;;2.47;1.07;;;;;;;;;;5073441;28;20111;-73
2021/03/05 11:47:32;;;;;;;3.42;1.10;;;;;;;;;;5072375;28;20035;-73
2021/03/05 11:49:57;;;;;;;2.63;1.20;;;;;;;;;;5072168;28;20027;-73
2021/03/05 11:52:22;;;;;;;3.20;1.10;;;;;;;;;;5073373;28;20120;-73
2021/03/05 11:54:48;;;;;;;2.43;1.00;;;;;;;;;;5073298;28;20452;-73
2021/03/05 11:57:13;;;;;;;2.83;1.00;;;;;;;;;;5073319;28;20127;-73
2021/03/05 11:59:38;;;;;;;2.70;1.20;;;;;;;;;;5055400;28;20072;-73
2021/03/05 12:02:04;;;;;;;2.23;1.13;;;;;;;;;;5073253;28;20067;-73
2021/03/05 12:04:29;;;;;;;2.30;1.00;;;;;;;;;;5071057;28;20081;-73
2021/03/05 12:06:54;;;;;;;2.07;1.10;;;;;;;;;;5070079;28;20447;-72
2021/03/05 12:09:20;;;;;;;3.00;0.93;;;;;;;;;;5065199;28;20056;-73
2021/03/05 12:11:45;;;;;;;2.53;1.13;;;;;;;;;;5072957;28;20383;-72
2021/03/05 12:14:11;;;;;;;2.20;1.07;;;;;;;;;;5059793;28;20143;-72
2021/03/05 12:16:36;;;;;;;2.53;0.90;;;;;;;;;;5072061;28;20051;-72
2021/03/05 12:19:01;;;;;;;2.07;0.97;;;;;;;;;;5072862;28;20060;-73
2021/03/05 12:21:27;;;;;;;2.63;1.10;;;;;;;;;;5071134;28;20072;-73
2021/03/05 12:23:52;;;;;;;2.10;0.90;;;;;;;;;;5072977;28;20025;-73
2021/03/05 12:26:17;;;;;;;2.83;1.03;;;;;;;;;;5072947;28;20201;-73
2021/03/05 12:28:43;;;;;;;1.90;0.80;;;;;;;;;;5068186;28;20142;-73
2021/03/05 12:31:08;;;;;;;1.90;1.00;;;;;;;;;;5060297;28;20041;-72
2021/03/05 12:33:33;;;;;;;3.17;1.30;;;;;;;;;;5055907;28;20083;-73
2021/03/05 12:35:59;;;;;;;1.70;0.80;;;;;;;;;;5068017;28;20078;-72
2021/03/05 12:38:24;;;;;;;2.03;0.97;;;;;;;;;;5073871;28;20052;-73
2021/03/05 12:40:49;;;;;;;2.10;0.93;;;;;;;;;;5055912;28;20041;-73
2021/03/05 12:43:15;;;;;;;3.70;1.13;;;;;;;;;;5064965;28;20043;-72
2021/03/05 12:45:40;;;;;;;2.40;1.17;;;;;;;;;;5076849;28;20037;-73
2021/03/05 12:48:06;;;;;;;3.77;1.17;;;;;;;;;;5058834;28;20032;-73
2021/03/05 12:50:31;;;;;;;2.27;1.10;;;;;;;;;;5075466;28;20036;-72
2021/03/05 12:52:57;;;;;;;2.30;0.90;;;;;;;;;;5068705;28;20094;-73
2021/03/05 12:55:22;;;;;;;34.73;2.97;;;;;;;;;;5075639;28;20078;-73
2021/03/05 12:57:48;;;;;;;6.63;1.50;;;;;;;;;;5057256;28;20123;-73
2021/03/05 13:00:13;;;;;;;7.17;1.60;;;;;;;;;;5070327;28;20113;-74
2021/03/05 13:02:39;;;;;;;6.07;1.50;;;;;;;;;;5056896;28;20040;-73
2021/03/05 13:05:05;;;;;;;4.77;1.50;;;;;;;;;;5074708;28;20068;-74
2021/03/05 13:07:30;;;;;;;5.80;1.48;;;;;;;;;;5070594;28;20070;-75
2021/03/05 13:09:56;;;;;;;4.27;1.20;;;;;;;;;;5072437;28;20075;-72
2021/03/05 13:12:22;;;;;;;3.70;1.40;;;;;;;;;;5057376;28;20065;-73
2021/03/05 13:14:51;;;;;;;3.75;1.20;;;;;;;;;;5039250;28;20040;-73
2021/03/05 13:17:16;;;;;;;4.28;1.50;;;;;;;;;;5055055;28;20079;-73
2021/03/05 13:19:42;;;;;;;4.60;1.30;;;;;;;;;;5056251;28;20064;-73
2021/03/05 13:22:07;;;;;;;3.67;1.27;;;;;;;;;;5056184;28;20126;-73
2021/03/05 13:24:32;;;;;;;5.20;1.27;;;;;;;;;;5056211;28;20067;-73
2021/03/05 13:26:58;;;;;;;4.90;1.23;;;;;;;;;;5056026;28;20068;-73
2021/03/05 13:29:23;;;;;;;5.90;1.20;;;;;;;;;;5054842;28;20112;-73
2021/03/05 13:31:49;;;;;;;4.53;1.30;;;;;;;;;;5054850;28;20052;-72
2021/03/05 13:34:14;;;;;;;3.22;1.30;;;;;;;;;;5056025;28;20055;-72
2021/03/05 13:36:40;;;;;;;5.13;1.60;;;;;;;;;;5054836;28;20037;-73
2021/03/05 13:39:05;;;;;;;3.33;1.20;;;;;;;;;;5037894;28;20484;-73
2021/03/05 13:41:30;;;;;;;3.47;1.37;;;;;;;;;;5055456;28;20039;-73
2021/03/05 13:43:56;;;;;;;2.80;1.17;;;;;;;;;;5054604;28;20112;-73
2021/03/05 13:46:21;;;;;;;4.43;1.27;;;;;;;;;;5055798;28;20063;-73
2021/03/05 13:48:46;;;;;;;6.17;1.40;;;;;;;;;;5054493;28;20512;-73
2021/03/05 13:51:12;;;;;;;2.33;1.10;;;;;;;;;;5055824;28;20505;-73
2021/03/05 13:53:37;;;;;;;3.30;1.43;;;;;;;;;;5054574;28;20138;-73
2021/03/05 13:56:03;;;;;;;3.80;1.33;;;;;;;;;;5054367;28;20036;-73
2021/03/05 13:58:29;;;;;;;3.75;1.38;;;;;;;;;;5054249;28;20040;-73
2021/03/05 14:00:54;;;;;;;4.27;1.40;;;;;;;;;;5054119;28;20036;-73
2021/03/05 14:03:20;;;;;;;2.47;1.17;;;;;;;;;;5055691;28;20307;-73
2021/03/05 14:05:45;;;;;;;3.67;1.60;;;;;;;;;;5055419;28;20061;-73
2021/03/05 14:08:10;;;;;;;3.33;1.23;;;;;;;;;;5055361;28;20060;-73
2021/03/05 14:10:36;;;;;;;2.33;1.20;;;;;;;;;;5055185;28;20491;-73
2021/03/05 14:13:01;;;;;;;2.67;1.10;;;;;;;;;;5055195;28;20467;-73
2021/03/05 14:15:26;;;;;;;3.23;1.10;;;;;;;;;;5054044;28;20036;-73
2021/03/05 14:17:52;;;;;;;4.03;1.20;;;;;;;;;;5055046;28;20145;-73
2021/03/05 14:20:17;;;;;;;3.07;1.17;;;;;;;;;;5055008;28;20064;-73
2021/03/05 14:22:42;;;;;;;4.37;1.27;;;;;;;;;;5053874;28;20036;-73
2021/03/05 14:25:08;;;;;;;4.23;1.50;;;;;;;;;;5053868;28;20056;-73
2021/03/05 14:27:34;;;;;;;3.83;1.17;;;;;;;;;;5055647;28;20029;-73
2021/03/05 14:29:59;;;;;;;3.37;1.40;;;;;;;;;;5053642;28;20067;-73
2021/03/05 14:32:25;;;;;;;2.77;1.33;;;;;;;;;;5037062;28;20035;-73
2021/03/05 14:34:50;;;;;;;4.30;1.40;;;;;;;;;;5053580;28;20075;-73
2021/03/05 14:37:16;;;;;;;4.50;1.50;;;;;;;;;;5037093;28;20116;-73
2021/03/05 14:39:41;;;;;;;2.78;1.35;;;;;;;;;;5054657;28;20407;-73
2021/03/05 14:42:07;;;;;;;2.93;1.20;;;;;;;;;;5054807;28;20043;-73
2021/03/05 14:44:33;;;;;;;3.93;1.20;;;;;;;;;;5053392;28;20064;-73
2021/03/05 14:46:58;;;;;;;3.87;1.47;;;;;;;;;;5053395;28;20021;-73
2021/03/05 14:49:23;;;;;;;3.63;1.23;;;;;;;;;;5054627;28;20031;-73